Time;durP1;ratioP1;P1;durP2;ratioP2;P2;SDS_P1;SDS_P2;PMS_P1;PMS_P2;Temp;Humidity;BMP_temperature;BMP_pressure;BME280_temperature;BME280_humidity;BME280_pressure;Samples;Min_cycle;Max_cycle;Signal;HPM_P1;HPM_P2
2023/01/09 00:02:25;;;;;;;1.93;1.43;;;11.50;99.90;;;;;;931162;149;27331;-76
2023/01/09 00:04:51;;;;;;;2.40;1.80;;;11.50;99.90;;;;;;930499;149;27543;-76
2023/01/09 00:07:18;;;;;;;1.83;1.73;;;11.50;99.90;;;;;;940731;149;27335;-77
2023/01/09 00:09:45;;;;;;;3.27;1.93;;;11.40;99.90;;;;;;947573;148;27344;-76
2023/01/09 00:12:11;;;;;;;2.63;1.80;;;11.40;99.90;;;;;;953921;147;27419;-76
2023/01/09 00:14:38;;;;;;;2.20;2.00;;;11.40;99.90;;;;;;964586;145;27380;-77
2023/01/09 00:17:04;;;;;;;1.90;1.80;;;11.40;99.90;;;;;;942402;148;27375;-77
2023/01/09 00:19:31;;;;;;;2.03;1.87;;;11.40;99.90;;;;;;961338;146;27343;-77
2023/01/09 00:21:57;;;;;;;2.37;2.17;;;11.40;99.90;;;;;;963715;146;27863;-75
2023/01/09 00:24:24;;;;;;;2.00;1.90;;;11.40;99.90;;;;;;964133;146;27291;-77
2023/01/09 00:26:51;;;;;;;2.03;1.83;;;11.40;99.90;;;;;;946816;149;27375;-76
2023/01/09 00:29:17;;;;;;;1.90;1.80;;;11.40;99.90;;;;;;967969;145;27333;-77
2023/01/09 00:31:44;;;;;;;1.67;1.57;;;11.40;99.90;;;;;;944920;148;27445;-76
2023/01/09 00:34:10;;;;;;;2.57;2.00;;;11.40;99.90;;;;;;962855;145;27369;-77
2023/01/09 00:36:37;;;;;;;3.37;2.40;;;11.40;99.90;;;;;;947217;149;27381;-77
2023/01/09 00:39:04;;;;;;;2.27;2.07;;;11.30;99.90;;;;;;964524;146;27472;-77
2023/01/09 00:41:36;;;;;;;1.97;1.87;;;11.30;99.90;;;;;;964425;146;27361;-76
2023/01/09 00:44:03;;;;;;;2.33;2.00;;;11.30;99.90;;;;;;947031;148;27328;-76
2023/01/09 00:46:29;;;;;;;2.10;2.00;;;11.30;99.90;;;;;;962874;146;27327;-76
2023/01/09 00:48:56;;;;;;;3.10;2.30;;;11.30;99.90;;;;;;964326;148;27394;-76
2023/01/09 00:51:23;;;;;;;2.10;1.90;;;11.30;99.90;;;;;;963471;148;27352;-76
2023/01/09 00:53:49;;;;;;;2.50;1.90;;;11.30;99.90;;;;;;964260;148;27413;-77
2023/01/09 00:56:16;;;;;;;2.13;1.97;;;11.20;99.90;;;;;;963961;148;27362;-76
2023/01/09 00:58:42;;;;;;;2.00;1.90;;;11.20;99.90;;;;;;964743;148;27323;-76
2023/01/09 01:01:09;;;;;;;2.30;2.20;;;11.20;99.90;;;;;;964758;147;27282;-77
2023/01/09 01:03:35;;;;;;;2.10;2.00;;;11.20;99.90;;;;;;963616;148;27344;-76
2023/01/09 01:08:47;;;;;;;2.47;2.27;;;11.20;99.90;;;;;;953440;145;27364;-76
2023/01/09 01:11:13;;;;;;;2.23;2.03;;;11.20;99.90;;;;;;951536;147;27403;-75
2023/01/09 01:13:40;;;;;;;2.03;1.87;;;11.20;99.90;;;;;;951586;147;27345;-75
2023/01/09 01:16:09;;;;;;;1.90;1.80;;;11.20;99.90;;;;;;952225;147;27451;-76
2023/01/09 01:18:36;;;;;;;1.73;1.63;;;11.20;99.90;;;;;;930747;149;27354;-76
2023/01/09 01:21:08;;;;;;;2.00;1.90;;;11.20;99.90;;;;;;935009;150;27429;-77
2023/01/09 01:23:35;;;;;;;1.90;1.80;;;11.20;99.90;;;;;;950567;147;27359;-76
2023/01/09 01:26:07;;;;;;;2.23;2.03;;;11.20;99.90;;;;;;940276;149;27487;-77
2023/01/09 01:28:34;;;;;;;2.93;1.77;;;11.20;99.90;;;;;;934053;150;27423;-77
2023/01/09 01:31:00;;;;;;;2.97;2.10;;;11.20;99.90;;;;;;951112;147;27308;-76
2023/01/09 01:33:27;;;;;;;2.07;1.97;;;11.20;99.90;;;;;;951131;147;27312;-77
2023/01/09 01:36:03;;;;;;;2.03;1.70;;;11.20;99.90;;;;;;934262;150;27362;-76
2023/01/09 01:38:29;;;;;;;2.07;1.90;;;11.20;99.90;;;;;;934882;149;27369;-77
2023/01/09 01:40:56;;;;;;;2.50;2.10;;;11.20;99.90;;;;;;952624;147;27707;-77
2023/01/09 01:43:22;;;;;;;2.23;2.03;;;11.20;99.90;;;;;;935015;150;27346;-77
2023/01/09 01:45:49;;;;;;;2.77;2.17;;;11.20;99.90;;;;;;932403;149;27366;-77
2023/01/09 01:48:18;;;;;;;2.37;2.17;;;11.20;99.90;;;;;;931833;150;27353;-76
2023/01/09 01:50:57;;;;;;;2.27;2.07;;;11.20;99.90;;;;;;950583;146;27402;-76
2023/01/09 01:53:32;;;;;;;3.57;2.27;;;11.20;99.90;;;;;;949099;146;27407;-78
2023/01/09 01:55:59;;;;;;;2.07;1.80;;;11.20;99.90;;;;;;950793;147;27336;-78
2023/01/09 01:58:25;;;;;;;1.80;1.70;;;11.20;99.90;;;;;;933986;149;28014;-77
2023/01/09 02:00:52;;;;;;;1.50;1.43;;;11.20;99.90;;;;;;935127;149;27348;-77
2023/01/09 02:03:19;;;;;;;2.10;1.67;;;11.20;99.90;;;;;;949064;148;27311;-78
2023/01/09 02:05:45;;;;;;;1.50;1.27;;;11.20;99.90;;;;;;949918;146;27348;-78
2023/01/09 02:08:12;;;;;;;1.10;1.10;;;11.20;99.90;;;;;;935764;148;27505;-77
2023/01/09 02:10:38;;;;;;;1.33;1.23;;;11.20;99.90;;;;;;927049;150;27271;-78
2023/01/09 02:13:05;;;;;;;0.93;0.93;;;11.20;99.90;;;;;;934508;150;27274;-77
2023/01/09 02:15:37;;;;;;;0.77;0.77;;;11.20;99.90;;;;;;927461;150;27314;-78
2023/01/09 02:18:06;;;;;;;1.17;0.90;;;11.30;99.90;;;;;;951156;147;27360;-78
2023/01/09 02:20:36;;;;;;;0.90;0.90;;;11.30;99.90;;;;;;927118;150;27399;-78
2023/01/09 02:23:27;;;;;;;0.60;0.60;;;11.30;99.90;;;;;;942674;149;27384;-78
2023/01/09 02:26:18;;;;;;;1.47;1.10;;;11.30;99.90;;;;;;924107;149;27404;-78
2023/01/09 02:29:22;;;;;;;0.80;0.80;;;11.40;99.90;;;;;;943397;149;27383;-78
2023/01/09 02:31:51;;;;;;;1.00;1.00;;;11.40;99.90;;;;;;943014;149;27375;-77
2023/01/09 02:34:36;;;;;;;0.80;0.80;;;11.40;99.90;;;;;;942420;149;27379;-76
2023/01/09 02:37:08;;;;;;;1.17;1.00;;;11.40;99.90;;;;;;926717;150;27454;-76
2023/01/09 02:39:43;;;;;;;0.90;0.90;;;11.40;99.90;;;;;;950570;147;27598;-77
2023/01/09 02:42:10;;;;;;;0.80;0.80;;;11.50;99.90;;;;;;934798;149;27447;-77
2023/01/09 02:44:36;;;;;;;0.90;0.90;;;11.50;99.90;;;;;;946275;148;27420;-76
2023/01/09 02:47:06;;;;;;;1.13;1.13;;;11.50;99.90;;;;;;930719;149;27351;-76
2023/01/09 02:49:32;;;;;;;1.07;1.00;;;11.50;99.90;;;;;;951625;147;27716;-77
2023/01/09 02:51:59;;;;;;;1.00;1.00;;;11.50;99.90;;;;;;934216;149;27894;-77
2023/01/09 02:54:31;;;;;;;1.10;1.10;;;11.50;99.90;;;;;;950662;147;27335;-76
2023/01/09 02:57:03;;;;;;;1.30;1.30;;;11.50;99.90;;;;;;950249;147;27698;-76
2023/01/09 02:59:36;;;;;;;1.83;1.20;;;11.50;99.90;;;;;;930818;149;27377;-77
2023/01/09 03:02:40;;;;;;;1.00;1.00;;;11.50;99.90;;;;;;925946;149;27401;-77
2023/01/09 03:05:19;;;;;;;0.80;0.80;;;11.40;99.90;;;;;;929521;149;27363;-77
2023/01/09 03:07:45;;;;;;;1.10;1.00;;;11.30;99.90;;;;;;951447;146;27349;-77
2023/01/09 03:10:20;;;;;;;0.90;0.90;;;11.20;99.90;;;;;;945829;148;27394;-76
2023/01/09 03:12:47;;;;;;;0.80;0.80;;;11.10;99.90;;;;;;951464;148;27348;-77
2023/01/09 03:15:14;;;;;;;0.90;0.90;;;11.00;99.90;;;;;;938107;149;27319;-77
2023/01/09 03:17:40;;;;;;;0.90;0.90;;;10.90;99.90;;;;;;938132;149;27447;-77
2023/01/09 03:20:07;;;;;;;1.63;1.10;;;10.90;99.90;;;;;;938635;148;27356;-76
2023/01/09 03:22:33;;;;;;;1.00;1.00;;;10.80;99.90;;;;;;943189;149;27388;-76
2023/01/09 03:25:00;;;;;;;0.87;0.87;;;10.70;99.90;;;;;;951791;148;27387;-77
2023/01/09 03:27:27;;;;;;;0.80;0.80;;;10.70;99.90;;;;;;934026;148;27417;-77
2023/01/09 03:29:55;;;;;;;1.07;1.00;;;10.70;99.90;;;;;;951408;148;27378;-76
2023/01/09 03:32:20;;;;;;;1.00;0.90;;;10.70;99.90;;;;;;951343;148;27480;-77
2023/01/09 03:34:47;;;;;;;0.90;0.90;;;10.70;99.90;;;;;;950894;148;27365;-76
2023/01/09 03:37:13;;;;;;;2.10;1.00;;;10.70;99.90;;;;;;951517;148;27327;-78
2023/01/09 03:39:40;;;;;;;1.03;1.03;;;10.70;99.90;;;;;;951144;148;27413;-76
2023/01/09 03:42:06;;;;;;;1.10;1.00;;;10.80;99.90;;;;;;951084;148;27361;-77
2023/01/09 03:44:33;;;;;;;0.93;0.93;;;10.80;99.90;;;;;;933060;148;27348;-76
2023/01/09 03:47:00;;;;;;;0.80;0.80;;;10.80;99.90;;;;;;951198;148;27450;-77
2023/01/09 03:49:26;;;;;;;0.70;0.70;;;10.80;99.90;;;;;;951618;148;27353;-77
2023/01/09 03:51:53;;;;;;;0.70;0.70;;;10.90;99.90;;;;;;951317;148;27520;-77
2023/01/09 03:54:19;;;;;;;0.60;0.60;;;10.90;99.90;;;;;;951972;148;28022;-76
2023/01/09 03:56:46;;;;;;;0.40;0.40;;;10.90;99.90;;;;;;950872;148;27359;-76
2023/01/09 03:59:13;;;;;;;0.50;0.50;;;10.90;99.90;;;;;;951468;148;27417;-76
2023/01/09 04:01:39;;;;;;;0.60;0.60;;;10.90;99.90;;;;;;951519;148;27390;-77
2023/01/09 04:04:06;;;;;;;0.70;0.70;;;10.90;99.90;;;;;;938141;149;27366;-77
2023/01/09 04:06:32;;;;;;;0.50;0.50;;;10.90;99.90;;;;;;937857;149;27460;-76
2023/01/09 04:08:59;;;;;;;1.30;0.70;;;10.90;99.90;;;;;;955232;147;27302;-76
2023/01/09 04:11:25;;;;;;;0.50;0.50;;;10.90;99.90;;;;;;946971;149;27430;-76
2023/01/09 04:13:52;;;;;;;0.40;0.40;;;10.90;99.90;;;;;;948153;148;27786;-77
2023/01/09 04:16:19;;;;;;;0.50;0.50;;;11.00;99.90;;;;;;947632;148;27385;-77
2023/01/09 04:18:45;;;;;;;0.60;0.60;;;10.90;99.90;;;;;;942086;149;27287;-77
2023/01/09 04:21:12;;;;;;;0.43;0.43;;;11.00;99.90;;;;;;949492;149;27270;-76
2023/01/09 04:23:38;;;;;;;0.40;0.40;;;11.00;99.90;;;;;;945619;149;27318;-77
2023/01/09 04:26:06;;;;;;;0.27;0.27;;;11.00;99.90;;;;;;945164;151;27491;-76
2023/01/09 04:28:32;;;;;;;0.30;0.30;;;10.90;99.90;;;;;;945166;148;27275;-77
2023/01/09 04:30:58;;;;;;;0.30;0.30;;;11.00;99.90;;;;;;943795;149;27395;-76
2023/01/09 04:33:25;;;;;;;0.40;0.40;;;11.00;99.90;;;;;;945742;148;27396;-75
2023/01/09 04:35:51;;;;;;;0.47;0.47;;;10.90;99.90;;;;;;944858;150;27497;-77
2023/01/09 04:38:18;;;;;;;0.20;0.20;;;10.90;99.90;;;;;;934751;149;27380;-76
2023/01/09 04:40:44;;;;;;;0.40;0.40;;;11.00;99.90;;;;;;941528;149;27491;-76
2023/01/09 04:43:11;;;;;;;0.77;0.47;;;11.00;99.90;;;;;;949431;150;27313;-76
2023/01/09 04:45:38;;;;;;;0.53;0.50;;;11.00;99.90;;;;;;950095;150;27382;-76
2023/01/09 04:48:04;;;;;;;0.60;0.57;;;11.00;99.90;;;;;;949826;148;27352;-76
2023/01/09 04:50:31;;;;;;;0.27;0.27;;;11.00;99.90;;;;;;950607;148;27410;-76
2023/01/09 04:52:58;;;;;;;0.50;0.50;;;11.00;99.90;;;;;;949231;148;27302;-76
2023/01/09 04:55:24;;;;;;;0.50;0.50;;;11.00;99.90;;;;;;949450;148;27328;-77
2023/01/09 04:57:51;;;;;;;1.90;0.40;;;11.00;99.90;;;;;;949923;148;27332;-77
2023/01/09 05:00:17;;;;;;;0.53;0.50;;;11.00;99.90;;;;;;950044;151;27336;-76
2023/01/09 05:02:44;;;;;;;0.40;0.40;;;11.00;99.90;;;;;;950273;148;27353;-76
2023/01/09 05:05:10;;;;;;;0.30;0.30;;;11.00;99.90;;;;;;948646;148;27360;-76
2023/01/09 05:07:37;;;;;;;1.47;0.60;;;11.00;99.90;;;;;;949656;148;27398;-77
2023/01/09 05:10:04;;;;;;;0.60;0.30;;;11.00;99.90;;;;;;950189;148;27885;-76
2023/01/09 05:12:30;;;;;;;1.23;0.50;;;11.00;99.90;;;;;;950198;148;27349;-76
2023/01/09 05:14:57;;;;;;;0.63;0.63;;;11.00;99.90;;;;;;950128;149;27346;-76
2023/01/09 05:17:23;;;;;;;0.60;0.60;;;11.00;99.90;;;;;;949643;148;27327;-77
2023/01/09 05:19:50;;;;;;;0.60;0.60;;;11.00;99.90;;;;;;942525;149;27466;-77
2023/01/09 05:22:16;;;;;;;0.47;0.47;;;11.00;99.90;;;;;;957989;147;27398;-76
2023/01/09 05:24:43;;;;;;;0.70;0.60;;;10.90;99.90;;;;;;950101;148;27315;-77
2023/01/09 05:27:10;;;;;;;1.30;0.50;;;10.90;99.90;;;;;;949145;145;27767;-77
2023/01/09 05:29:36;;;;;;;0.63;0.50;;;10.90;99.90;;;;;;949686;148;27299;-77
2023/01/09 05:32:03;;;;;;;2.10;0.80;;;10.80;99.90;;;;;;949234;148;27338;-77
2023/01/09 05:34:29;;;;;;;0.43;0.40;;;10.80;99.90;;;;;;948170;148;27427;-76
2023/01/09 05:36:56;;;;;;;0.47;0.47;;;10.70;99.90;;;;;;949267;148;27322;-76
2023/01/09 05:39:23;;;;;;;0.67;0.67;;;10.70;99.90;;;;;;949191;148;27412;-77
2023/01/09 05:41:49;;;;;;;1.17;1.00;;;10.70;99.90;;;;;;949012;148;27274;-77
2023/01/09 05:44:16;;;;;;;1.03;0.77;;;10.60;99.90;;;;;;949237;148;27330;-77
2023/01/09 05:46:42;;;;;;;1.43;0.87;;;10.60;99.90;;;;;;948657;148;27404;-77
2023/01/09 05:49:09;;;;;;;0.70;0.70;;;10.60;99.90;;;;;;948963;148;27303;-77
2023/01/09 05:51:36;;;;;;;0.97;0.97;;;10.60;99.90;;;;;;949807;148;27306;-77
2023/01/09 05:54:03;;;;;;;1.30;0.90;;;10.50;99.90;;;;;;949900;148;27364;-77
2023/01/09 05:56:29;;;;;;;1.17;1.00;;;10.50;99.90;;;;;;949340;148;27744;-77
2023/01/09 05:58:55;;;;;;;2.20;1.87;;;10.50;99.90;;;;;;949544;148;27396;-77
2023/01/09 06:01:22;;;;;;;3.43;2.10;;;10.50;99.90;;;;;;949121;148;27240;-76
2023/01/09 06:03:48;;;;;;;1.50;1.40;;;10.50;99.90;;;;;;949309;148;27336;-77
2023/01/09 06:06:15;;;;;;;2.00;1.77;;;10.40;99.90;;;;;;949341;148;27335;-76
2023/01/09 06:08:42;;;;;;;2.70;1.93;;;10.40;99.90;;;;;;949780;148;27412;-76
2023/01/09 06:11:08;;;;;;;1.93;1.70;;;10.40;99.90;;;;;;950531;147;27408;-76
2023/01/09 06:13:35;;;;;;;3.43;1.60;;;10.30;99.90;;;;;;954565;147;27706;-76
2023/01/09 06:16:01;;;;;;;0.80;0.80;;;10.30;99.90;;;;;;954346;147;27468;-77
2023/01/09 06:18:28;;;;;;;2.27;0.83;;;10.20;99.90;;;;;;955512;147;27354;-77
2023/01/09 06:20:55;;;;;;;1.87;0.70;;;10.20;99.90;;;;;;954272;147;27415;-76
2023/01/09 06:23:21;;;;;;;1.10;0.70;;;10.10;99.90;;;;;;955188;147;27394;-77
2023/01/09 06:25:48;;;;;;;1.23;0.80;;;10.10;99.90;;;;;;954268;147;27338;-77
2023/01/09 06:28:14;;;;;;;0.60;0.60;;;10.10;99.90;;;;;;955340;147;27362;-76
2023/01/09 06:30:41;;;;;;;0.80;0.80;;;10.00;99.90;;;;;;953931;147;27275;-76
2023/01/09 06:33:08;;;;;;;2.33;0.70;;;10.00;99.90;;;;;;954563;147;27371;-78
2023/01/09 06:35:34;;;;;;;1.27;0.80;;;10.00;99.90;;;;;;953844;147;27364;-79
2023/01/09 06:38:02;;;;;;;0.67;0.67;;;9.90;99.90;;;;;;953958;147;27369;-79
2023/01/09 06:40:27;;;;;;;0.90;0.70;;;9.90;99.90;;;;;;951385;147;27475;-79
2023/01/09 06:42:54;;;;;;;1.07;0.50;;;9.80;99.90;;;;;;952269;147;27311;-79
2023/01/09 06:45:20;;;;;;;0.97;0.47;;;9.70;99.90;;;;;;952845;147;27364;-79
2023/01/09 06:47:48;;;;;;;0.70;0.67;;;9.70;99.90;;;;;;951890;147;27338;-77
2023/01/09 06:50:14;;;;;;;0.60;0.43;;;9.70;99.90;;;;;;952593;147;27481;-77
2023/01/09 06:52:40;;;;;;;1.30;0.60;;;9.60;99.90;;;;;;955172;147;27478;-77
2023/01/09 06:55:07;;;;;;;0.50;0.50;;;9.70;99.90;;;;;;954649;147;27311;-77
2023/01/09 06:57:33;;;;;;;1.20;0.93;;;9.70;99.90;;;;;;954764;147;27259;-77
2023/01/09 07:00:00;;;;;;;1.17;0.80;;;9.70;99.90;;;;;;954810;147;28021;-77
2023/01/09 07:02:27;;;;;;;0.83;0.83;;;9.70;99.90;;;;;;952233;147;27370;-77
2023/01/09 07:04:53;;;;;;;0.80;0.80;;;9.70;99.90;;;;;;953222;147;27323;-78
2023/01/09 07:07:21;;;;;;;1.60;1.00;;;9.80;99.90;;;;;;951437;147;27275;-78
2023/01/09 07:09:46;;;;;;;3.57;1.50;;;9.80;99.90;;;;;;954265;147;27358;-78
2023/01/09 07:12:14;;;;;;;0.80;0.80;;;9.90;99.90;;;;;;951510;147;27369;-76
2023/01/09 07:14:40;;;;;;;1.63;1.10;;;9.90;99.90;;;;;;948892;148;27303;-80
2023/01/09 07:17:07;;;;;;;2.17;1.47;;;9.90;99.90;;;;;;949513;148;27400;-79
2023/01/09 07:19:33;;;;;;;2.37;1.03;;;10.00;99.90;;;;;;948085;148;27334;-78
2023/01/09 07:22:00;;;;;;;3.03;1.10;;;10.00;99.90;;;;;;949209;148;27388;-78
2023/01/09 07:24:26;;;;;;;2.13;0.97;;;10.10;99.90;;;;;;950181;148;27302;-78
2023/01/09 07:26:53;;;;;;;1.37;0.90;;;10.10;99.90;;;;;;948527;148;27326;-77
2023/01/09 07:29:20;;;;;;;2.97;0.83;;;10.20;99.90;;;;;;946797;148;27304;-78
2023/01/09 07:31:46;;;;;;;2.43;1.07;;;10.20;99.90;;;;;;948787;148;27264;-78
2023/01/09 07:34:13;;;;;;;2.83;1.03;;;10.30;99.90;;;;;;949046;148;27399;-78
2023/01/09 07:36:39;;;;;;;1.70;1.23;;;10.30;99.90;;;;;;949518;148;27326;-78
2023/01/09 07:39:07;;;;;;;2.30;1.03;;;10.30;99.90;;;;;;936249;149;27495;-78
2023/01/09 07:41:32;;;;;;;1.83;0.73;;;10.30;99.90;;;;;;948840;150;27277;-78
2023/01/09 07:43:59;;;;;;;1.03;0.70;;;10.40;99.90;;;;;;948953;148;27438;-78
2023/01/09 07:46:27;;;;;;;2.47;1.20;;;10.40;99.90;;;;;;949697;148;27398;-78
2023/01/09 07:48:52;;;;;;;1.20;0.80;;;10.40;99.90;;;;;;945553;148;27345;-78
2023/01/09 07:51:19;;;;;;;1.63;1.47;;;10.40;99.70;;;;;;945560;148;28052;-77
2023/01/09 07:53:45;;;;;;;3.53;0.97;;;10.50;99.50;;;;;;945590;149;27317;-78
2023/01/09 07:56:12;;;;;;;1.00;0.70;;;10.50;99.40;;;;;;944679;149;27383;-78
2023/01/09 07:58:39;;;;;;;1.83;0.80;;;10.50;99.00;;;;;;945006;150;27354;-78
2023/01/09 08:01:05;;;;;;;2.47;1.00;;;10.50;98.90;;;;;;945295;148;27733;-77
2023/01/09 08:03:35;;;;;;;4.80;1.07;;;10.50;99.00;;;;;;945264;149;27439;-78
2023/01/09 08:05:58;;;;;;;2.20;0.77;;;10.60;99.10;;;;;;944889;149;27316;-78
2023/01/09 08:08:25;;;;;;;2.83;0.80;;;10.60;99.10;;;;;;945631;151;27348;-78
2023/01/09 08:10:52;;;;;;;1.83;0.80;;;10.60;99.00;;;;;;944281;151;27423;-77
2023/01/09 08:13:18;;;;;;;2.30;0.80;;;10.60;99.10;;;;;;949708;146;27434;-77
2023/01/09 08:15:45;;;;;;;2.93;1.10;;;10.60;98.70;;;;;;953095;147;27249;-78
2023/01/09 08:18:11;;;;;;;2.47;1.00;;;10.60;98.90;;;;;;953171;148;27254;-78
2023/01/09 08:20:38;;;;;;;2.43;1.07;;;10.60;98.60;;;;;;950421;150;27451;-77
2023/01/09 08:23:04;;;;;;;1.97;1.43;;;10.70;98.60;;;;;;952627;149;27389;-78
2023/01/09 08:25:32;;;;;;;3.30;2.17;;;10.70;98.70;;;;;;951933;150;27244;-78
2023/01/09 08:27:58;;;;;;;4.73;1.80;;;10.70;98.70;;;;;;952445;150;27319;-77
2023/01/09 08:30:24;;;;;;;2.27;2.07;;;10.70;98.60;;;;;;953025;149;27314;-78
2023/01/09 08:32:51;;;;;;;3.50;2.70;;;10.70;98.40;;;;;;951409;148;27492;-78
2023/01/09 08:35:17;;;;;;;4.63;2.40;;;10.80;98.30;;;;;;951356;148;28627;-77
2023/01/09 08:37:44;;;;;;;4.43;2.40;;;10.80;98.10;;;;;;953666;148;27427;-77
2023/01/09 08:40:11;;;;;;;4.40;1.83;;;10.80;97.90;;;;;;953120;148;27311;-78
2023/01/09 08:48:07;;;;;;;2.93;1.70;;;10.90;98.00;;;;;;953359;147;27330;-77
2023/01/09 08:50:33;;;;;;;2.50;1.70;;;10.90;98.00;;;;;;953963;147;27472;-79
2023/01/09 08:53:00;;;;;;;2.07;1.43;;;10.90;97.90;;;;;;953485;149;27251;-80
2023/01/09 08:55:26;;;;;;;2.00;1.87;;;10.90;98.00;;;;;;952451;148;27829;-79
2023/01/09 08:57:53;;;;;;;1.53;1.30;;;11.00;98.00;;;;;;952460;150;27427;-79
2023/01/09 09:00:20;;;;;;;2.13;1.50;;;11.00;97.90;;;;;;952372;150;27375;-79
2023/01/09 09:02:46;;;;;;;1.90;1.70;;;11.00;97.80;;;;;;951313;148;28048;-79
2023/01/09 09:05:13;;;;;;;1.10;1.00;;;11.10;97.70;;;;;;949875;148;27467;-79
2023/01/09 09:07:40;;;;;;;1.30;1.20;;;11.10;97.70;;;;;;951237;150;27427;-79
2023/01/09 09:10:06;;;;;;;2.97;1.47;;;11.10;97.60;;;;;;951687;148;27476;-79
2023/01/09 09:12:33;;;;;;;2.60;0.90;;;11.10;97.60;;;;;;952678;149;27271;-80
2023/01/09 09:15:11;;;;;;;2.83;0.93;;;11.20;97.10;;;;;;952551;147;27369;-80
2023/01/09 09:17:39;;;;;;;2.57;1.07;;;11.20;97.10;;;;;;951743;149;28168;-77
2023/01/09 09:20:05;;;;;;;3.03;1.70;;;11.20;97.20;;;;;;952632;150;27349;-77
2023/01/09 09:22:31;;;;;;;1.37;1.27;;;11.30;96.60;;;;;;951704;148;27810;-77
2023/01/09 09:24:58;;;;;;;2.30;1.33;;;11.30;96.80;;;;;;952188;149;27376;-77
2023/01/09 09:27:24;;;;;;;2.50;2.07;;;11.30;96.90;;;;;;953500;149;27450;-77
2023/01/09 09:29:51;;;;;;;5.50;1.77;;;11.30;96.80;;;;;;952942;148;27342;-77
2023/01/09 09:32:18;;;;;;;3.47;1.60;;;11.40;96.70;;;;;;951741;148;27346;-77
2023/01/09 09:34:44;;;;;;;2.40;1.13;;;11.40;96.80;;;;;;951511;148;27410;-77
2023/01/09 09:37:11;;;;;;;2.20;1.30;;;11.40;96.90;;;;;;952163;149;27274;-77
2023/01/09 09:39:37;;;;;;;1.53;1.00;;;11.40;96.70;;;;;;952744;149;27415;-77
2023/01/09 09:45:07;;;;;;;0.97;0.80;;;11.50;96.80;;;;;;952844;150;27243;-77
2023/01/09 09:47:49;;;;;;;1.77;0.70;;;11.60;96.70;;;;;;952871;150;27299;-78
2023/01/09 09:50:24;;;;;;;1.03;0.90;;;11.60;96.80;;;;;;953071;150;27343;-77
2023/01/09 09:53:11;;;;;;;2.40;0.93;;;11.70;96.90;;;;;;953320;150;27729;-77
2023/01/09 09:55:38;;;;;;;1.30;0.80;;;11.70;96.70;;;;;;952286;147;27419;-77
2023/01/09 09:58:13;;;;;;;1.23;1.07;;;11.80;96.60;;;;;;950650;150;27315;-77
2023/01/09 10:00:40;;;;;;;2.30;1.20;;;11.90;96.80;;;;;;951645;148;27863;-78
2023/01/09 10:03:06;;;;;;;1.33;1.00;;;11.90;96.80;;;;;;951508;147;27377;-78
2023/01/09 10:05:36;;;;;;;1.40;0.83;;;12.00;97.00;;;;;;951760;149;27350;-77
2023/01/09 10:08:06;;;;;;;3.23;1.10;;;12.10;96.70;;;;;;951251;149;27875;-77
2023/01/09 10:10:32;;;;;;;1.20;0.73;;;12.20;96.50;;;;;;950135;149;27358;-77
2023/01/09 10:14:03;;;;;;;2.60;0.83;;;12.20;95.60;;;;;;952746;149;27430;-76
2023/01/09 10:15:34;;;;;;;3.13;0.80;;;12.30;94.80;;;;;;960335;148;27277;-78
2023/01/09 10:18:10;;;;;;;1.73;0.90;;;12.30;94.50;;;;;;964226;147;27325;-78
2023/01/09 10:20:49;;;;;;;1.00;0.75;;;12.30;94.50;;;;;;963606;148;27418;-78
2023/01/09 10:23:15;;;;;;;2.23;1.13;;;12.30;94.70;;;;;;963603;148;27493;-77
2023/01/09 10:25:50;;;;;;;0.67;0.53;;;12.30;94.40;;;;;;963067;148;27290;-77
2023/01/09 10:28:28;;;;;;;2.37;1.07;;;12.30;94.60;;;;;;963433;148;27308;-78
2023/01/09 10:31:04;;;;;;;0.83;0.77;;;12.40;94.40;;;;;;961417;148;27827;-78
2023/01/09 10:33:51;;;;;;;1.80;1.13;;;12.40;94.80;;;;;;963388;148;27361;-78
2023/01/09 10:36:26;;;;;;;1.80;0.97;;;12.50;94.70;;;;;;963924;148;27418;-77
2023/01/09 10:38:53;;;;;;;1.70;0.97;;;12.50;94.70;;;;;;944301;148;27441;-78
2023/01/09 10:41:28;;;;;;;1.27;0.83;;;12.60;94.40;;;;;;964653;148;27434;-76
2023/01/09 10:43:55;;;;;;;2.87;1.20;;;12.60;93.30;;;;;;964469;148;27276;-77
2023/01/09 10:46:27;;;;;;;1.73;0.80;;;12.60;93.10;;;;;;963264;148;27416;-77
2023/01/09 10:49:00;;;;;;;1.00;0.80;;;12.60;92.70;;;;;;964222;147;27426;-77
2023/01/09 10:51:32;;;;;;;1.12;0.70;;;12.60;92.60;;;;;;963600;148;27269;-76
2023/01/09 10:53:58;;;;;;;1.47;1.00;;;12.60;92.50;;;;;;962981;148;27341;-77
2023/01/09 10:56:25;;;;;;;1.70;0.97;;;12.60;92.50;;;;;;964182;148;27332;-78
2023/01/09 10:58:52;;;;;;;1.87;1.00;;;12.60;92.20;;;;;;965074;148;27360;-77
2023/01/09 11:01:24;;;;;;;1.70;0.63;;;12.60;92.30;;;;;;963871;148;27317;-77
2023/01/09 11:03:50;;;;;;;1.63;1.00;;;12.50;92.20;;;;;;960173;148;27277;-78
2023/01/09 11:06:24;;;;;;;1.23;0.90;;;12.60;92.20;;;;;;964614;148;27440;-78
2023/01/09 11:08:49;;;;;;;1.20;0.83;;;12.50;92.20;;;;;;956056;148;27249;-78
2023/01/09 11:11:31;;;;;;;0.93;0.70;;;12.60;91.50;;;;;;964853;148;27293;-78
2023/01/09 11:14:03;;;;;;;2.07;0.77;;;12.60;91.90;;;;;;963450;148;27953;-79
2023/01/09 11:16:30;;;;;;;2.90;0.80;;;12.60;92.20;;;;;;959459;149;27356;-77
2023/01/09 11:18:57;;;;;;;1.13;0.60;;;12.60;92.00;;;;;;960030;147;27341;-77
2023/01/09 11:21:36;;;;;;;0.53;0.50;;;12.60;91.70;;;;;;959302;149;27333;-78
2023/01/09 11:24:04;;;;;;;0.77;0.60;;;12.60;91.30;;;;;;959846;148;27320;-78
2023/01/09 11:26:33;;;;;;;1.20;0.70;;;12.60;91.50;;;;;;950606;149;27340;-78
2023/01/09 11:29:06;;;;;;;0.53;0.50;;;12.60;91.80;;;;;;958660;147;27432;-78
2023/01/09 11:31:32;;;;;;;1.03;0.80;;;12.60;91.60;;;;;;957776;146;27338;-79
2023/01/09 11:33:59;;;;;;;2.30;0.87;;;12.60;91.60;;;;;;959076;148;27360;-78
2023/01/09 11:36:26;;;;;;;1.03;0.70;;;12.60;91.50;;;;;;958268;149;27451;-78
2023/01/09 11:38:55;;;;;;;2.17;0.67;;;12.60;91.00;;;;;;959546;149;28488;-78
2023/01/09 11:41:21;;;;;;;1.67;0.63;;;12.60;90.60;;;;;;959250;147;27324;-78
2023/01/09 11:43:48;;;;;;;1.20;0.70;;;12.50;91.20;;;;;;958741;147;27342;-78
2023/01/09 11:46:32;;;;;;;0.83;0.70;;;12.50;91.70;;;;;;959695;147;27439;-78
2023/01/09 11:48:59;;;;;;;3.60;0.90;;;12.50;91.60;;;;;;959930;148;28572;-79
2023/01/09 11:51:26;;;;;;;0.50;0.50;;;12.50;91.50;;;;;;959590;149;27314;-79
2023/01/09 11:54:11;;;;;;;0.67;0.50;;;12.60;91.90;;;;;;958693;149;28180;-78
2023/01/09 11:56:38;;;;;;;0.87;0.63;;;12.60;91.50;;;;;;958510;147;27859;-78
2023/01/09 11:59:10;;;;;;;1.70;0.50;;;12.60;91.80;;;;;;959701;148;27436;-78
2023/01/09 12:01:58;;;;;;;0.83;0.83;;;12.70;91.90;;;;;;958608;148;27447;-78
2023/01/09 12:04:27;;;;;;;0.50;0.50;;;12.70;91.60;;;;;;957995;148;27259;-78
2023/01/09 12:07:18;;;;;;;0.95;0.85;;;12.80;91.70;;;;;;958203;149;27302;-77
2023/01/09 12:09:45;;;;;;;1.03;0.57;;;12.80;91.30;;;;;;959539;148;27301;-78
2023/01/09 12:12:14;;;;;;;1.25;0.60;;;12.90;90.60;;;;;;960495;146;27523;-77
2023/01/09 12:14:40;;;;;;;1.13;0.70;;;12.90;90.50;;;;;;960485;147;27594;-77
2023/01/09 12:17:23;;;;;;;1.20;0.67;;;12.90;90.50;;;;;;969269;147;27793;-77
2023/01/09 12:19:57;;;;;;;0.60;0.50;;;12.90;90.20;;;;;;969585;145;27337;-78
2023/01/09 12:22:30;;;;;;;2.58;0.90;;;12.90;89.60;;;;;;969375;147;27488;-77
2023/01/09 12:25:05;;;;;;;1.83;0.90;;;12.80;88.90;;;;;;942512;147;27253;-78
2023/01/09 12:27:53;;;;;;;1.83;0.90;;;12.80;89.00;;;;;;967658;147;27337;-78
2023/01/09 12:30:26;;;;;;;0.70;0.70;;;12.80;89.10;;;;;;968935;147;27415;-78
2023/01/09 12:33:07;;;;;;;2.23;0.77;;;12.70;88.70;;;;;;969144;147;27468;-78
2023/01/09 12:35:39;;;;;;;1.13;0.70;;;12.70;89.00;;;;;;968178;147;27350;-78
2023/01/09 12:38:12;;;;;;;1.37;0.70;;;12.60;89.10;;;;;;969930;147;27364;-77
2023/01/09 12:40:39;;;;;;;1.90;0.90;;;12.60;88.90;;;;;;962137;147;27329;-79
2023/01/09 12:43:21;;;;;;;1.00;0.70;;;12.50;89.40;;;;;;967485;147;27417;-77
2023/01/09 12:45:50;;;;;;;0.45;0.42;;;12.50;89.40;;;;;;969285;147;27902;-78
2023/01/09 12:48:35;;;;;;;1.98;0.65;;;12.50;90.00;;;;;;968202;145;27350;-78
2023/01/09 12:51:16;;;;;;;2.50;0.90;;;12.50;90.00;;;;;;969709;146;27254;-79
2023/01/09 12:53:46;;;;;;;2.23;0.90;;;12.50;90.50;;;;;;969016;147;27284;-78
2023/01/09 12:56:13;;;;;;;2.63;1.07;;;12.50;90.70;;;;;;968003;145;27852;-78
2023/01/09 12:58:45;;;;;;;2.10;0.80;;;12.60;90.90;;;;;;969140;147;27350;-78
2023/01/09 13:01:14;;;;;;;1.60;0.73;;;12.60;91.10;;;;;;964060;147;27325;-78
2023/01/09 13:03:44;;;;;;;1.67;0.57;;;12.70;90.90;;;;;;968123;147;27433;-77
2023/01/09 13:06:11;;;;;;;1.57;0.93;;;12.80;90.70;;;;;;969209;147;27367;-77
2023/01/09 13:08:40;;;;;;;1.30;0.80;;;12.90;90.80;;;;;;969090;147;27293;-77